sensor_id;sensor_type;location;lat;lon;timestamp;temperature;humidity
22220;DHT22;11279;48.364;10.904;2022-07-04T00:00:40;22.00;99.90
22220;DHT22;11279;48.364;10.904;2022-07-04T00:01:41;21.90;99.90
22220;DHT22;11279;48.364;10.904;2022-07-04T00:02:43;21.90;99.90
22220;DHT22;11279;48.364;10.904;2022-07-04T00:03:44;21.90;99.90
22220;DHT22;11279;48.364;10.904;2022-07-04T00:04:45;21.80;99.90
22220;DHT22;11279;48.364;10.904;2022-07-04T00:05:45;21.80;99.90
22220;DHT22;11279;48.364;10.904;2022-07-04T00:06:46;21.70;99.90
22220;DHT22;11279;48.364;10.904;2022-07-04T00:07:49;21.70;99.90
22220;DHT22;11279;48.364;10.904;2022-07-04T00:08:49;21.60;99.90
22220;DHT22;11279;48.364;10.904;2022-07-04T00:09:50;21.60;99.90
22220;DHT22;11279;48.364;10.904;2022-07-04T00:10:51;21.60;99.90
22220;DHT22;11279;48.364;10.904;2022-07-04T00:11:51;21.50;99.90
22220;DHT22;11279;48.364;10.904;2022-07-04T00:12:52;21.50;99.90
22220;DHT22;11279;48.364;10.904;2022-07-04T00:13:53;21.40;99.90
22220;DHT22;11279;48.364;10.904;2022-07-04T00:14:53;21.30;99.90
22220;DHT22;11279;48.364;10.904;2022-07-04T00:15:54;21.30;99.90
22220;DHT22;11279;48.364;10.904;2022-07-04T00:16:55;21.20;99.90
22220;DHT22;11279;48.364;10.904;2022-07-04T00:17:55;21.30;99.90
22220;DHT22;11279;48.364;10.904;2022-07-04T00:18:56;21.30;99.90
22220;DHT22;11279;48.364;10.904;2022-07-04T00:19:57;21.30;99.90
22220;DHT22;11279;48.364;10.904;2022-07-04T00:20:57;21.30;99.90
22220;DHT22;11279;48.364;10.904;2022-07-04T00:21:58;21.20;99.90
22220;DHT22;11279;48.364;10.904;2022-07-04T00:23:00;21.10;99.90
22220;DHT22;11279;48.364;10.904;2022-07-04T00:24:00;21.10;99.90
22220;DHT22;11279;48.364;10.904;2022-07-04T00:25:01;21.10;99.90
22220;DHT22;11279;48.364;10.904;2022-07-04T00:26:02;21.10;99.90
22220;DHT22;11279;48.364;10.904;2022-07-04T00:27:03;21.10;99.90
22220;DHT22;11279;48.364;10.904;2022-07-04T00:28:04;21.10;99.90
22220;DHT22;11279;48.364;10.904;2022-07-04T00:29:05;21.10;99.90
22220;DHT22;11279;48.364;10.904;2022-07-04T00:30:05;21.10;99.90
22220;DHT22;11279;48.364;10.904;2022-07-04T00:31:06;21.00;99.90
22220;DHT22;11279;48.364;10.904;2022-07-04T00:32:07;21.00;99.90
22220;DHT22;11279;48.364;10.904;2022-07-04T00:33:12;21.00;99.90
22220;DHT22;11279;48.364;10.904;2022-07-04T00:34:13;21.00;99.90
22220;DHT22;11279;48.364;10.904;2022-07-04T00:35:14;21.00;99.90
22220;DHT22;11279;48.364;10.904;2022-07-04T00:36:15;21.00;99.90
22220;DHT22;11279;48.364;10.904;2022-07-04T00:37:16;21.00;99.90
22220;DHT22;11279;48.364;10.904;2022-07-04T00:38:16;21.00;99.90
22220;DHT22;11279;48.364;10.904;2022-07-04T00:39:17;21.00;99.90
22220;DHT22;11279;48.364;10.904;2022-07-04T00:40:18;21.00;99.90
22220;DHT22;11279;48.364;10.904;2022-07-04T00:41:19;21.00;99.90
22220;DHT22;11279;48.364;10.904;2022-07-04T00:42:20;21.00;99.90
22220;DHT22;11279;48.364;10.904;2022-07-04T00:43:25;21.00;99.90
22220;DHT22;11279;48.364;10.904;2022-07-04T00:44:26;21.00;99.90
22220;DHT22;11279;48.364;10.904;2022-07-04T00:45:27;21.00;99.90
22220;DHT22;11279;48.364;10.904;2022-07-04T00:46:27;21.00;99.90
22220;DHT22;11279;48.364;10.904;2022-07-04T00:47:28;21.00;99.90
22220;DHT22;11279;48.364;10.904;2022-07-04T00:48:29;21.00;99.90
22220;DHT22;11279;48.364;10.904;2022-07-04T00:49:29;21.00;99.90
22220;DHT22;11279;48.364;10.904;2022-07-04T00:50:30;21.00;99.90
22220;DHT22;11279;48.364;10.904;2022-07-04T00:51:32;21.00;99.90
22220;DHT22;11279;48.364;10.904;2022-07-04T00:52:33;21.10;99.90
22220;DHT22;11279;48.364;10.904;2022-07-04T00:53:33;21.10;99.90
22220;DHT22;11279;48.364;10.904;2022-07-04T00:54:34;21.00;99.90
22220;DHT22;11279;48.364;10.904;2022-07-04T00:55:35;21.00;99.90
22220;DHT22;11279;48.364;10.904;2022-07-04T00:56:37;21.00;99.90
22220;DHT22;11279;48.364;10.904;2022-07-04T00:57:38;21.10;99.90
22220;DHT22;11279;48.364;10.904;2022-07-04T00:58:39;21.00;99.90
22220;DHT22;11279;48.364;10.904;2022-07-04T00:59:40;21.00;99.90
22220;DHT22;11279;48.364;10.904;2022-07-04T01:00:41;21.10;99.90
22220;DHT22;11279;48.364;10.904;2022-07-04T01:01:42;21.10;99.90
22220;DHT22;11279;48.364;10.904;2022-07-04T01:02:43;21.00;99.90
22220;DHT22;11279;48.364;10.904;2022-07-04T01:03:43;21.00;99.90
22220;DHT22;11279;48.364;10.904;2022-07-04T01:04:44;21.00;99.90
22220;DHT22;11279;48.364;10.904;2022-07-04T01:05:45;20.90;99.90
22220;DHT22;11279;48.364;10.904;2022-07-04T01:06:46;20.90;99.90
22220;DHT22;11279;48.364;10.904;2022-07-04T01:07:47;20.90;99.90
22220;DHT22;11279;48.364;10.904;2022-07-04T01:08:47;20.90;99.90
22220;DHT22;11279;48.364;10.904;2022-07-04T01:09:48;20.90;99.90
22220;DHT22;11279;48.364;10.904;2022-07-04T01:10:49;20.90;99.90
22220;DHT22;11279;48.364;10.904;2022-07-04T01:11:50;20.80;99.90
22220;DHT22;11279;48.364;10.904;2022-07-04T01:12:51;20.80;99.90
22220;DHT22;11279;48.364;10.904;2022-07-04T01:13:55;20.80;99.90
22220;DHT22;11279;48.364;10.904;2022-07-04T01:14:55;20.80;99.90
22220;DHT22;11279;48.364;10.904;2022-07-04T01:15:56;20.80;99.90
22220;DHT22;11279;48.364;10.904;2022-07-04T01:16:56;20.80;99.90
22220;DHT22;11279;48.364;10.904;2022-07-04T01:17:57;20.80;99.90
22220;DHT22;11279;48.364;10.904;2022-07-04T01:18:58;20.80;99.90
22220;DHT22;11279;48.364;10.904;2022-07-04T01:19:59;20.80;99.90
22220;DHT22;11279;48.364;10.904;2022-07-04T01:20:59;20.80;99.90
22220;DHT22;11279;48.364;10.904;2022-07-04T01:22:05;20.80;99.90
22220;DHT22;11279;48.364;10.904;2022-07-04T01:23:06;20.80;99.90
22220;DHT22;11279;48.364;10.904;2022-07-04T01:24:11;20.70;99.90
22220;DHT22;11279;48.364;10.904;2022-07-04T01:25:12;20.70;99.90
22220;DHT22;11279;48.364;10.904;2022-07-04T01:26:14;20.70;99.90
22220;DHT22;11279;48.364;10.904;2022-07-04T01:27:16;20.70;99.90
22220;DHT22;11279;48.364;10.904;2022-07-04T01:28:20;20.80;99.90
22220;DHT22;11279;48.364;10.904;2022-07-04T01:29:21;20.70;99.90
22220;DHT22;11279;48.364;10.904;2022-07-04T01:30:22;20.70;99.90
22220;DHT22;11279;48.364;10.904;2022-07-04T01:31:22;20.70;99.90
22220;DHT22;11279;48.364;10.904;2022-07-04T01:32:23;20.70;99.90
22220;DHT22;11279;48.364;10.904;2022-07-04T01:33:24;20.70;99.90
22220;DHT22;11279;48.364;10.904;2022-07-04T01:34:24;20.70;99.90
22220;DHT22;11279;48.364;10.904;2022-07-04T01:35:25;20.70;99.90
22220;DHT22;11279;48.364;10.904;2022-07-04T01:36:26;20.70;99.90
22220;DHT22;11279;48.364;10.904;2022-07-04T01:37:26;20.70;99.90
22220;DHT22;11279;48.364;10.904;2022-07-04T01:38:27;20.70;99.90
22220;DHT22;11279;48.364;10.904;2022-07-04T01:39:28;20.70;99.90
22220;DHT22;11279;48.364;10.904;2022-07-04T01:40:29;20.70;99.90
22220;DHT22;11279;48.364;10.904;2022-07-04T01:41:33;20.80;99.90
22220;DHT22;11279;48.364;10.904;2022-07-04T01:42:34;20.70;99.90
22220;DHT22;11279;48.364;10.904;2022-07-04T01:43:35;20.70;99.90
22220;DHT22;11279;48.364;10.904;2022-07-04T01:44:36;20.70;99.90
22220;DHT22;11279;48.364;10.904;2022-07-04T01:45:37;20.70;99.90
22220;DHT22;11279;48.364;10.904;2022-07-04T01:46:37;20.70;99.90
22220;DHT22;11279;48.364;10.904;2022-07-04T01:47:39;20.60;99.90
22220;DHT22;11279;48.364;10.904;2022-07-04T01:48:40;20.70;99.90
22220;DHT22;11279;48.364;10.904;2022-07-04T01:49:41;20.70;99.90
22220;DHT22;11279;48.364;10.904;2022-07-04T01:50:42;20.60;99.90
22220;DHT22;11279;48.364;10.904;2022-07-04T01:51:47;20.60;99.90
22220;DHT22;11279;48.364;10.904;2022-07-04T01:52:48;20.60;99.90
22220;DHT22;11279;48.364;10.904;2022-07-04T01:53:49;20.70;99.90
22220;DHT22;11279;48.364;10.904;2022-07-04T01:54:50;20.70;99.90
22220;DHT22;11279;48.364;10.904;2022-07-04T01:55:50;20.70;99.90
22220;DHT22;11279;48.364;10.904;2022-07-04T01:56:51;20.70;99.90
22220;DHT22;11279;48.364;10.904;2022-07-04T01:57:52;20.80;99.90
22220;DHT22;11279;48.364;10.904;2022-07-04T01:58:52;20.80;99.90
22220;DHT22;11279;48.364;10.904;2022-07-04T01:59:53;20.70;99.90
22220;DHT22;11279;48.364;10.904;2022-07-04T02:01:12;20.80;99.90
22220;DHT22;11279;48.364;10.904;2022-07-04T02:02:31;20.70;99.90
22220;DHT22;11279;48.364;10.904;2022-07-04T02:03:32;20.70;99.90
22220;DHT22;11279;48.364;10.904;2022-07-04T02:04:32;20.80;99.90
22220;DHT22;11279;48.364;10.904;2022-07-04T02:05:33;20.80;99.90
22220;DHT22;11279;48.364;10.904;2022-07-04T02:06:34;20.80;99.90
22220;DHT22;11279;48.364;10.904;2022-07-04T02:07:35;20.80;99.90
22220;DHT22;11279;48.364;10.904;2022-07-04T02:08:36;20.80;99.90
22220;DHT22;11279;48.364;10.904;2022-07-04T02:09:55;20.90;99.90
22220;DHT22;11279;48.364;10.904;2022-07-04T02:10:56;20.90;99.90
22220;DHT22;11279;48.364;10.904;2022-07-04T02:11:57;20.90;99.90
22220;DHT22;11279;48.364;10.904;2022-07-04T02:13:16;20.90;99.90
22220;DHT22;11279;48.364;10.904;2022-07-04T02:14:17;20.90;99.90
22220;DHT22;11279;48.364;10.904;2022-07-04T02:15:17;20.90;99.90
22220;DHT22;11279;48.364;10.904;2022-07-04T02:16:18;21.00;99.90
22220;DHT22;11279;48.364;10.904;2022-07-04T02:17:19;21.00;99.90
22220;DHT22;11279;48.364;10.904;2022-07-04T02:18:20;21.00;99.90
22220;DHT22;11279;48.364;10.904;2022-07-04T02:19:20;21.00;99.90
22220;DHT22;11279;48.364;10.904;2022-07-04T02:20:21;20.90;99.90
22220;DHT22;11279;48.364;10.904;2022-07-04T02:21:22;20.90;99.90
22220;DHT22;11279;48.364;10.904;2022-07-04T02:22:22;20.90;99.90
22220;DHT22;11279;48.364;10.904;2022-07-04T02:23:23;20.90;99.90
22220;DHT22;11279;48.364;10.904;2022-07-04T02:24:24;20.90;99.90
22220;DHT22;11279;48.364;10.904;2022-07-04T02:25:25;20.90;99.90
22220;DHT22;11279;48.364;10.904;2022-07-04T02:26:25;20.90;99.90
22220;DHT22;11279;48.364;10.904;2022-07-04T02:27:26;20.90;99.90
22220;DHT22;11279;48.364;10.904;2022-07-04T02:28:27;20.90;99.90
22220;DHT22;11279;48.364;10.904;2022-07-04T02:29:28;20.90;99.90
22220;DHT22;11279;48.364;10.904;2022-07-04T02:30:28;20.90;99.90
22220;DHT22;11279;48.364;10.904;2022-07-04T02:31:29;20.90;99.90
22220;DHT22;11279;48.364;10.904;2022-07-04T02:32:29;20.90;99.90
22220;DHT22;11279;48.364;10.904;2022-07-04T02:33:30;20.90;99.90
22220;DHT22;11279;48.364;10.904;2022-07-04T02:34:31;20.80;99.90
22220;DHT22;11279;48.364;10.904;2022-07-04T02:35:32;20.80;99.90
22220;DHT22;11279;48.364;10.904;2022-07-04T02:36:32;20.80;99.90
22220;DHT22;11279;48.364;10.904;2022-07-04T02:37:33;20.80;99.90
22220;DHT22;11279;48.364;10.904;2022-07-04T02:38:34;20.80;99.90
22220;DHT22;11279;48.364;10.904;2022-07-04T02:39:35;20.80;99.90
22220;DHT22;11279;48.364;10.904;2022-07-04T02:40:35;20.80;99.90
22220;DHT22;11279;48.364;10.904;2022-07-04T02:41:36;20.70;99.90
22220;DHT22;11279;48.364;10.904;2022-07-04T02:42:37;20.70;99.90
22220;DHT22;11279;48.364;10.904;2022-07-04T02:43:37;20.70;99.90
22220;DHT22;11279;48.364;10.904;2022-07-04T02:44:38;20.70;99.90
22220;DHT22;11279;48.364;10.904;2022-07-04T02:45:39;20.60;99.90
22220;DHT22;11279;48.364;10.904;2022-07-04T02:46:39;20.60;99.90
22220;DHT22;11279;48.364;10.904;2022-07-04T02:47:40;20.50;99.90
22220;DHT22;11279;48.364;10.904;2022-07-04T02:48:41;20.50;99.90
22220;DHT22;11279;48.364;10.904;2022-07-04T02:49:42;20.50;99.90
22220;DHT22;11279;48.364;10.904;2022-07-04T02:50:43;20.50;99.90
22220;DHT22;11279;48.364;10.904;2022-07-04T02:51:44;20.40;99.90
22220;DHT22;11279;48.364;10.904;2022-07-04T02:52:44;20.40;99.90
22220;DHT22;11279;48.364;10.904;2022-07-04T02:53:45;20.30;99.90
22220;DHT22;11279;48.364;10.904;2022-07-04T02:54:45;20.30;99.90
22220;DHT22;11279;48.364;10.904;2022-07-04T02:55:47;20.20;99.90
22220;DHT22;11279;48.364;10.904;2022-07-04T02:56:47;20.20;99.90
22220;DHT22;11279;48.364;10.904;2022-07-04T02:57:48;20.20;99.90
22220;DHT22;11279;48.364;10.904;2022-07-04T02:58:49;20.20;99.90
22220;DHT22;11279;48.364;10.904;2022-07-04T02:59:49;20.10;99.90
22220;DHT22;11279;48.364;10.904;2022-07-04T03:00:50;20.10;99.90
22220;DHT22;11279;48.364;10.904;2022-07-04T03:01:51;20.10;99.90
22220;DHT22;11279;48.364;10.904;2022-07-04T03:02:53;20.00;99.90
22220;DHT22;11279;48.364;10.904;2022-07-04T03:03:53;19.90;99.90
22220;DHT22;11279;48.364;10.904;2022-07-04T03:04:54;19.90;99.90
22220;DHT22;11279;48.364;10.904;2022-07-04T03:05:55;19.90;99.90
22220;DHT22;11279;48.364;10.904;2022-07-04T03:06:55;19.90;99.90
22220;DHT22;11279;48.364;10.904;2022-07-04T03:07:56;19.90;99.90
22220;DHT22;11279;48.364;10.904;2022-07-04T03:08:56;19.90;99.90
22220;DHT22;11279;48.364;10.904;2022-07-04T03:09:57;19.90;99.90
22220;DHT22;11279;48.364;10.904;2022-07-04T03:10:58;19.90;99.90
22220;DHT22;11279;48.364;10.904;2022-07-04T03:11:58;19.90;99.90
22220;DHT22;11279;48.364;10.904;2022-07-04T03:12:59;19.90;99.90
22220;DHT22;11279;48.364;10.904;2022-07-04T03:14:00;19.90;99.90
22220;DHT22;11279;48.364;10.904;2022-07-04T03:15:00;20.00;99.90
22220;DHT22;11279;48.364;10.904;2022-07-04T03:16:01;19.90;99.90
22220;DHT22;11279;48.364;10.904;2022-07-04T03:17:02;20.00;99.90
22220;DHT22;11279;48.364;10.904;2022-07-04T03:18:02;20.00;99.90
22220;DHT22;11279;48.364;10.904;2022-07-04T03:19:03;20.00;99.90
22220;DHT22;11279;48.364;10.904;2022-07-04T03:20:04;20.00;99.90
22220;DHT22;11279;48.364;10.904;2022-07-04T03:21:05;20.10;99.90
22220;DHT22;11279;48.364;10.904;2022-07-04T03:22:06;20.10;99.90
22220;DHT22;11279;48.364;10.904;2022-07-04T03:23:06;20.20;99.90
22220;DHT22;11279;48.364;10.904;2022-07-04T03:24:07;20.20;99.90
22220;DHT22;11279;48.364;10.904;2022-07-04T03:25:09;20.20;99.90
22220;DHT22;11279;48.364;10.904;2022-07-04T03:26:10;20.30;99.90
22220;DHT22;11279;48.364;10.904;2022-07-04T03:27:10;20.30;99.90
22220;DHT22;11279;48.364;10.904;2022-07-04T03:28:11;20.30;99.90
22220;DHT22;11279;48.364;10.904;2022-07-04T03:29:12;20.30;99.90
22220;DHT22;11279;48.364;10.904;2022-07-04T03:30:13;20.40;99.90
22220;DHT22;11279;48.364;10.904;2022-07-04T03:31:13;20.40;99.90
22220;DHT22;11279;48.364;10.904;2022-07-04T03:32:14;20.40;99.90
22220;DHT22;11279;48.364;10.904;2022-07-04T03:33:14;20.40;99.90
22220;DHT22;11279;48.364;10.904;2022-07-04T03:34:15;20.40;99.90
22220;DHT22;11279;48.364;10.904;2022-07-04T03:35:16;20.40;99.90
22220;DHT22;11279;48.364;10.904;2022-07-04T03:36:17;20.40;99.90
22220;DHT22;11279;48.364;10.904;2022-07-04T03:37:18;20.30;99.90
22220;DHT22;11279;48.364;10.904;2022-07-04T03:38:19;20.20;99.90
22220;DHT22;11279;48.364;10.904;2022-07-04T03:39:19;20.20;99.90
22220;DHT22;11279;48.364;10.904;2022-07-04T03:40:21;20.10;99.90
22220;DHT22;11279;48.364;10.904;2022-07-04T03:41:22;20.10;99.90
22220;DHT22;11279;48.364;10.904;2022-07-04T03:42:22;20.10;99.90
22220;DHT22;11279;48.364;10.904;2022-07-04T03:43:23;20.00;99.90
22220;DHT22;11279;48.364;10.904;2022-07-04T03:44:24;20.10;99.90
22220;DHT22;11279;48.364;10.904;2022-07-04T03:45:25;20.00;99.90
22220;DHT22;11279;48.364;10.904;2022-07-04T03:46:25;20.00;99.90
22220;DHT22;11279;48.364;10.904;2022-07-04T03:47:26;20.00;99.90
22220;DHT22;11279;48.364;10.904;2022-07-04T03:48:27;20.10;99.90
22220;DHT22;11279;48.364;10.904;2022-07-04T03:49:27;20.10;99.90
22220;DHT22;11279;48.364;10.904;2022-07-04T03:50:28;20.00;99.90
22220;DHT22;11279;48.364;10.904;2022-07-04T03:51:29;20.00;99.90
22220;DHT22;11279;48.364;10.904;2022-07-04T03:52:30;20.00;99.90
22220;DHT22;11279;48.364;10.904;2022-07-04T03:53:31;20.10;99.90
22220;DHT22;11279;48.364;10.904;2022-07-04T03:54:31;20.10;99.90
22220;DHT22;11279;48.364;10.904;2022-07-04T03:55:32;20.10;99.90
22220;DHT22;11279;48.364;10.904;2022-07-04T03:56:33;20.20;99.90
22220;DHT22;11279;48.364;10.904;2022-07-04T03:57:33;20.20;99.90
22220;DHT22;11279;48.364;10.904;2022-07-04T03:58:34;20.20;99.90
22220;DHT22;11279;48.364;10.904;2022-07-04T03:59:35;20.20;99.90
22220;DHT22;11279;48.364;10.904;2022-07-04T04:00:36;20.20;99.90
22220;DHT22;11279;48.364;10.904;2022-07-04T04:01:36;20.20;99.90
22220;DHT22;11279;48.364;10.904;2022-07-04T04:02:37;20.20;99.90
22220;DHT22;11279;48.364;10.904;2022-07-04T04:03:38;20.20;99.90
22220;DHT22;11279;48.364;10.904;2022-07-04T04:04:57;20.20;99.90
22220;DHT22;11279;48.364;10.904;2022-07-04T04:06:16;20.20;99.90
22220;DHT22;11279;48.364;10.904;2022-07-04T04:07:17;20.20;99.90
22220;DHT22;11279;48.364;10.904;2022-07-04T04:08:17;20.20;99.90
22220;DHT22;11279;48.364;10.904;2022-07-04T04:09:18;20.10;99.90
22220;DHT22;11279;48.364;10.904;2022-07-04T04:10:19;20.10;99.90
22220;DHT22;11279;48.364;10.904;2022-07-04T04:11:20;20.20;99.90
22220;DHT22;11279;48.364;10.904;2022-07-04T04:12:21;20.20;99.90
22220;DHT22;11279;48.364;10.904;2022-07-04T04:13:21;20.20;99.90
22220;DHT22;11279;48.364;10.904;2022-07-04T04:14:23;20.20;99.90
22220;DHT22;11279;48.364;10.904;2022-07-04T04:15:25;20.20;99.90
22220;DHT22;11279;48.364;10.904;2022-07-04T04:16:25;20.30;99.90
22220;DHT22;11279;48.364;10.904;2022-07-04T04:17:26;20.30;99.90
22220;DHT22;11279;48.364;10.904;2022-07-04T04:18:27;20.30;99.90
22220;DHT22;11279;48.364;10.904;2022-07-04T04:19:27;20.30;99.90
22220;DHT22;11279;48.364;10.904;2022-07-04T04:20:28;20.40;99.90
22220;DHT22;11279;48.364;10.904;2022-07-04T04:21:29;20.40;99.90
22220;DHT22;11279;48.364;10.904;2022-07-04T04:22:29;20.40;99.90
22220;DHT22;11279;48.364;10.904;2022-07-04T04:23:30;20.40;99.90
22220;DHT22;11279;48.364;10.904;2022-07-04T04:24:31;20.40;99.90
22220;DHT22;11279;48.364;10.904;2022-07-04T04:25:32;20.40;99.90
22220;DHT22;11279;48.364;10.904;2022-07-04T04:26:33;20.40;99.90
22220;DHT22;11279;48.364;10.904;2022-07-04T04:27:33;20.40;99.90
22220;DHT22;11279;48.364;10.904;2022-07-04T04:28:34;20.50;99.90
22220;DHT22;11279;48.364;10.904;2022-07-04T04:29:35;20.40;99.90
22220;DHT22;11279;48.364;10.904;2022-07-04T04:30:36;20.40;99.90
22220;DHT22;11279;48.364;10.904;2022-07-04T04:31:36;20.50;99.90
22220;DHT22;11279;48.364;10.904;2022-07-04T04:32:37;20.50;99.90
22220;DHT22;11279;48.364;10.904;2022-07-04T04:33:38;20.50;99.90
22220;DHT22;11279;48.364;10.904;2022-07-04T04:34:41;20.50;99.90
22220;DHT22;11279;48.364;10.904;2022-07-04T04:35:41;20.50;99.90
22220;DHT22;11279;48.364;10.904;2022-07-04T04:36:42;20.40;99.90
22220;DHT22;11279;48.364;10.904;2022-07-04T04:37:43;20.50;99.90
22220;DHT22;11279;48.364;10.904;2022-07-04T04:38:43;20.50;99.90
22220;DHT22;11279;48.364;10.904;2022-07-04T04:39:44;20.50;99.90
22220;DHT22;11279;48.364;10.904;2022-07-04T04:40:45;20.50;99.90
22220;DHT22;11279;48.364;10.904;2022-07-04T04:41:46;20.50;99.90
22220;DHT22;11279;48.364;10.904;2022-07-04T04:42:46;20.50;99.90
22220;DHT22;11279;48.364;10.904;2022-07-04T04:43:47;20.50;99.90
22220;DHT22;11279;48.364;10.904;2022-07-04T04:44:47;20.50;99.90
22220;DHT22;11279;48.364;10.904;2022-07-04T04:45:48;20.50;99.90
22220;DHT22;11279;48.364;10.904;2022-07-04T04:46:49;20.50;99.90
22220;DHT22;11279;48.364;10.904;2022-07-04T04:47:49;20.60;99.90
22220;DHT22;11279;48.364;10.904;2022-07-04T04:48:50;20.60;99.90
22220;DHT22;11279;48.364;10.904;2022-07-04T04:49:51;20.70;99.90
22220;DHT22;11279;48.364;10.904;2022-07-04T04:50:52;20.70;99.90
22220;DHT22;11279;48.364;10.904;2022-07-04T04:51:52;20.70;99.90
22220;DHT22;11279;48.364;10.904;2022-07-04T04:52:53;20.60;99.90
22220;DHT22;11279;48.364;10.904;2022-07-04T04:53:54;20.70;99.90
22220;DHT22;11279;48.364;10.904;2022-07-04T04:54:54;20.80;99.90
22220;DHT22;11279;48.364;10.904;2022-07-04T04:55:55;20.90;99.90
22220;DHT22;11279;48.364;10.904;2022-07-04T04:56:56;21.00;99.90
22220;DHT22;11279;48.364;10.904;2022-07-04T04:57:57;21.10;99.90
22220;DHT22;11279;48.364;10.904;2022-07-04T04:58:57;21.20;99.90
22220;DHT22;11279;48.364;10.904;2022-07-04T04:59:58;21.30;99.90
22220;DHT22;11279;48.364;10.904;2022-07-04T05:00:58;21.30;99.90
22220;DHT22;11279;48.364;10.904;2022-07-04T05:01:59;21.30;99.90
22220;DHT22;11279;48.364;10.904;2022-07-04T05:03:00;21.40;99.90
22220;DHT22;11279;48.364;10.904;2022-07-04T05:04:00;21.40;99.90
22220;DHT22;11279;48.364;10.904;2022-07-04T05:05:01;21.40;99.90
22220;DHT22;11279;48.364;10.904;2022-07-04T05:06:02;21.50;99.90
22220;DHT22;11279;48.364;10.904;2022-07-04T05:07:03;21.50;99.90
22220;DHT22;11279;48.364;10.904;2022-07-04T05:08:03;21.50;99.90
22220;DHT22;11279;48.364;10.904;2022-07-04T05:09:04;21.60;99.90
22220;DHT22;11279;48.364;10.904;2022-07-04T05:10:05;21.60;99.90
22220;DHT22;11279;48.364;10.904;2022-07-04T05:11:06;21.60;99.90
22220;DHT22;11279;48.364;10.904;2022-07-04T05:12:07;21.50;99.90
22220;DHT22;11279;48.364;10.904;2022-07-04T05:13:08;21.50;99.90
22220;DHT22;11279;48.364;10.904;2022-07-04T05:14:09;21.50;99.90
22220;DHT22;11279;48.364;10.904;2022-07-04T05:15:10;21.40;99.90
22220;DHT22;11279;48.364;10.904;2022-07-04T05:16:11;21.40;99.90
22220;DHT22;11279;48.364;10.904;2022-07-04T05:17:11;21.40;99.90
22220;DHT22;11279;48.364;10.904;2022-07-04T05:18:12;21.30;99.90
22220;DHT22;11279;48.364;10.904;2022-07-04T05:19:13;21.30;99.90
22220;DHT22;11279;48.364;10.904;2022-07-04T05:20:14;21.30;99.90
22220;DHT22;11279;48.364;10.904;2022-07-04T05:21:15;21.20;99.90
22220;DHT22;11279;48.364;10.904;2022-07-04T05:22:15;21.20;99.90
22220;DHT22;11279;48.364;10.904;2022-07-04T05:23:16;21.20;99.90
22220;DHT22;11279;48.364;10.904;2022-07-04T05:24:17;21.30;99.90
22220;DHT22;11279;48.364;10.904;2022-07-04T05:25:17;21.30;99.90
22220;DHT22;11279;48.364;10.904;2022-07-04T05:26:18;21.30;99.90
22220;DHT22;11279;48.364;10.904;2022-07-04T05:27:19;21.30;99.90
22220;DHT22;11279;48.364;10.904;2022-07-04T05:28:19;21.30;99.90
22220;DHT22;11279;48.364;10.904;2022-07-04T05:29:20;21.20;99.90
22220;DHT22;11279;48.364;10.904;2022-07-04T05:30:21;21.10;99.90
22220;DHT22;11279;48.364;10.904;2022-07-04T05:31:21;21.00;99.90
22220;DHT22;11279;48.364;10.904;2022-07-04T05:32:22;21.00;99.90
22220;DHT22;11279;48.364;10.904;2022-07-04T05:33:23;21.00;99.90
22220;DHT22;11279;48.364;10.904;2022-07-04T05:34:23;21.00;99.90
22220;DHT22;11279;48.364;10.904;2022-07-04T05:35:24;20.90;99.90
22220;DHT22;11279;48.364;10.904;2022-07-04T05:36:26;21.00;99.90
22220;DHT22;11279;48.364;10.904;2022-07-04T05:37:26;21.00;99.90
22220;DHT22;11279;48.364;10.904;2022-07-04T05:38:27;20.80;99.90
22220;DHT22;11279;48.364;10.904;2022-07-04T05:39:28;20.80;99.90
22220;DHT22;11279;48.364;10.904;2022-07-04T05:40:29;20.80;99.90
22220;DHT22;11279;48.364;10.904;2022-07-04T05:41:30;20.70;99.90
22220;DHT22;11279;48.364;10.904;2022-07-04T05:42:30;20.80;99.90
22220;DHT22;11279;48.364;10.904;2022-07-04T05:43:31;20.80;99.90
22220;DHT22;11279;48.364;10.904;2022-07-04T05:44:32;20.90;99.90
22220;DHT22;11279;48.364;10.904;2022-07-04T05:45:32;21.00;99.90
22220;DHT22;11279;48.364;10.904;2022-07-04T05:46:33;21.10;99.90
22220;DHT22;11279;48.364;10.904;2022-07-04T05:47:34;21.00;99.90
22220;DHT22;11279;48.364;10.904;2022-07-04T05:48:35;21.00;99.90
22220;DHT22;11279;48.364;10.904;2022-07-04T05:49:35;21.10;99.90
22220;DHT22;11279;48.364;10.904;2022-07-04T05:50:36;21.20;99.90
22220;DHT22;11279;48.364;10.904;2022-07-04T05:51:37;21.30;99.90
22220;DHT22;11279;48.364;10.904;2022-07-04T05:52:38;21.20;99.90
22220;DHT22;11279;48.364;10.904;2022-07-04T05:53:39;21.20;99.90
22220;DHT22;11279;48.364;10.904;2022-07-04T05:54:39;21.40;99.90
22220;DHT22;11279;48.364;10.904;2022-07-04T05:55:40;21.40;99.90
22220;DHT22;11279;48.364;10.904;2022-07-04T05:56:41;21.30;99.90
22220;DHT22;11279;48.364;10.904;2022-07-04T05:57:42;21.30;99.90
22220;DHT22;11279;48.364;10.904;2022-07-04T05:58:43;21.50;99.90
22220;DHT22;11279;48.364;10.904;2022-07-04T05:59:44;21.60;99.90
22220;DHT22;11279;48.364;10.904;2022-07-04T06:00:45;21.70;99.90
22220;DHT22;11279;48.364;10.904;2022-07-04T06:01:46;21.70;99.90
22220;DHT22;11279;48.364;10.904;2022-07-04T06:02:47;21.60;99.90
22220;DHT22;11279;48.364;10.904;2022-07-04T06:03:48;21.60;99.90
22220;DHT22;11279;48.364;10.904;2022-07-04T06:04:48;21.70;99.90
22220;DHT22;11279;48.364;10.904;2022-07-04T06:05:49;21.70;99.90
22220;DHT22;11279;48.364;10.904;2022-07-04T06:06:50;21.70;99.90
22220;DHT22;11279;48.364;10.904;2022-07-04T06:07:51;21.60;99.90
22220;DHT22;11279;48.364;10.904;2022-07-04T06:08:52;21.60;99.90
22220;DHT22;11279;48.364;10.904;2022-07-04T06:09:53;21.70;99.90
22220;DHT22;11279;48.364;10.904;2022-07-04T06:10:53;21.80;99.90
22220;DHT22;11279;48.364;10.904;2022-07-04T06:11:54;21.80;99.90
22220;DHT22;11279;48.364;10.904;2022-07-04T06:12:55;21.80;99.90
22220;DHT22;11279;48.364;10.904;2022-07-04T06:13:55;21.90;99.90
22220;DHT22;11279;48.364;10.904;2022-07-04T06:14:56;21.90;99.90
22220;DHT22;11279;48.364;10.904;2022-07-04T06:15:57;21.90;99.90
22220;DHT22;11279;48.364;10.904;2022-07-04T06:16:58;21.90;99.90
22220;DHT22;11279;48.364;10.904;2022-07-04T06:17:58;21.90;99.90
22220;DHT22;11279;48.364;10.904;2022-07-04T06:18:59;22.00;99.90
22220;DHT22;11279;48.364;10.904;2022-07-04T06:20:00;21.90;99.90